Time;durP1;ratioP1;P1;durP2;ratioP2;P2;SDS_P1;SDS_P2;PMS_P1;PMS_P2;Temp;Humidity;BMP_temperature;BMP_pressure;BME280_temperature;BME280_humidity;BME280_pressure;Samples;Min_cycle;Max_cycle;Signal;HPM_P1;HPM_P2
2022/01/29 00:01:53;;;;;;;21.48;7.90;;;;;;;7.38;100.00;102682.78;5091600;28;20531;-49
2022/01/29 00:04:19;;;;;;;18.13;8.07;;;;;;;7.41;100.00;102674.09;5091408;28;20399;-50
2022/01/29 00:06:44;;;;;;;18.90;7.30;;;;;;;7.33;100.00;102657.41;5092734;28;20467;-49
2022/01/29 00:09:14;;;;;;;23.10;7.72;;;;;;;7.47;100.00;102673.28;5091337;28;20040;-47
2022/01/29 00:11:41;;;;;;;24.48;7.35;;;;;;;7.46;100.00;102672.41;5092313;28;20050;-51
2022/01/29 00:14:06;;;;;;;24.27;6.88;;;;;;;7.51;100.00;102669.81;5092856;28;20040;-47
2022/01/29 00:16:33;;;;;;;17.05;7.00;;;;;;;7.51;100.00;102661.94;5091337;28;20035;-50
2022/01/29 00:18:58;;;;;;;19.02;6.75;;;;;;;7.23;100.00;102601.47;5092802;28;20055;-48
2022/01/29 00:21:23;;;;;;;20.02;7.32;;;;;;;7.50;100.00;102661.06;5091282;28;20071;-48
2022/01/29 00:23:49;;;;;;;24.40;7.50;;;;;;;7.59;100.00;102650.66;5090443;28;20127;-49
2022/01/29 00:26:16;;;;;;;22.40;8.05;;;;;;;7.25;100.00;102590.97;5090520;28;20035;-48
2022/01/29 00:28:41;;;;;;;26.77;9.35;;;;;;;7.16;100.00;102547.25;5092191;28;20029;-48
2022/01/29 00:31:10;;;;;;;20.60;10.00;;;;;;;7.49;100.00;102616.53;5090862;28;20032;-49
2022/01/29 00:33:35;;;;;;;21.38;8.93;;;;;;;7.23;100.00;102572.66;5090724;28;20081;-45
2022/01/29 00:36:01;;;;;;;21.38;9.48;;;;;;;7.63;100.00;102622.75;5092261;28;20229;-50
2022/01/29 00:38:26;;;;;;;28.88;11.00;;;;;;;7.62;100.00;102636.69;5090504;28;20073;-47
2022/01/29 00:40:51;;;;;;;29.17;10.85;;;;;;;7.64;100.00;102637.63;5091926;28;20389;-48
2022/01/29 00:43:17;;;;;;;26.17;11.48;;;;;;;7.68;100.00;102636.75;5092000;28;20032;-51
2022/01/29 00:45:42;;;;;;;23.52;9.98;;;;;;;7.22;100.00;102560.41;5092380;28;20036;-51
2022/01/29 00:48:08;;;;;;;24.75;11.63;;;;;;;7.67;100.00;102648.13;5090808;28;20089;-47
2022/01/29 00:50:33;;;;;;;30.35;12.43;;;;;;;7.42;100.00;102601.59;5092059;28;20499;-49
2022/01/29 00:52:59;;;;;;;27.05;12.73;;;;;;;7.56;100.00;102631.44;5092024;28;20040;-48
2022/01/29 00:55:24;;;;;;;27.23;14.10;;;;;;;7.54;100.00;102635.78;5091445;28;20038;-49
2022/01/29 00:57:50;;;;;;;24.63;14.07;;;;;;;6.76;100.00;102483.22;5091493;28;20052;-50
2022/01/29 01:00:16;;;;;;;32.63;15.57;;;;;;;7.44;100.00;102619.13;5091549;28;20101;-51
2022/01/29 01:02:45;;;;;;;23.33;14.15;;;;;;;7.45;100.00;102610.38;5091833;28;20024;-50
2022/01/29 01:05:10;;;;;;;24.75;15.07;;;;;;;7.42;100.00;102605.09;5093960;28;20063;-53
2022/01/29 01:07:36;;;;;;;26.10;15.13;;;;;;;6.99;100.00;102527.91;5090433;28;20080;-47
2022/01/29 01:10:02;;;;;;;26.88;16.70;;;;;;;6.95;100.00;102515.63;5091008;28;20036;-53
2022/01/29 01:12:27;;;;;;;23.35;17.13;;;;;;;7.40;100.00;102583.25;5090672;28;20093;-54
2022/01/29 01:14:53;;;;;;;26.65;16.67;;;;;;;7.32;100.00;102564.00;5103712;28;20039;-52
2022/01/29 01:17:18;;;;;;;25.33;16.80;;;;;;;7.43;100.00;102574.53;5090590;28;20032;-55
2022/01/29 01:19:44;;;;;;;30.17;17.63;;;;;;;7.38;100.00;102570.13;5110412;28;20038;-48
2022/01/29 01:22:10;;;;;;;21.40;16.67;;;;;;;7.32;100.00;102559.63;5113781;28;20059;-50
2022/01/29 01:24:35;;;;;;;24.55;18.15;;;;;;;7.42;100.00;102570.16;5116129;28;20442;-48
2022/01/29 01:27:01;;;;;;;27.10;19.20;;;;;;;6.97;100.00;102503.47;5114985;28;20131;-51
2022/01/29 01:29:26;;;;;;;30.17;19.27;;;;;;;7.41;100.00;102574.56;5116256;28;20042;-51
2022/01/29 01:31:52;;;;;;;34.33;18.48;;;;;;;7.38;100.00;102570.13;5116423;28;20066;-51
2022/01/29 01:34:22;;;;;;;27.63;19.75;;;;;;;7.33;100.00;102563.09;5116134;28;20027;-49
2022/01/29 01:36:53;;;;;;;34.95;20.42;;;;;;;7.42;100.00;102575.41;5114941;28;20038;-50
2022/01/29 01:39:23;;;;;;;30.70;20.13;;;;;;;7.14;100.00;102519.31;5115953;28;20509;-49
2022/01/29 01:42:02;;;;;;;33.35;21.42;;;;;;;7.34;100.00;102552.66;5116068;28;20035;-52
2022/01/29 01:44:45;;;;;;;28.00;19.92;;;;;;;7.39;100.00;102560.53;5116066;28;20071;-51
2022/01/29 01:47:10;;;;;;;35.40;20.05;;;;;;;7.45;100.00;102572.81;5116066;28;20027;-51
2022/01/29 01:49:36;;;;;;;29.25;19.38;;;;;;;7.00;100.00;102486.91;5115921;28;20263;-49
2022/01/29 01:52:03;;;;;;;37.40;20.58;;;;;;;7.44;100.00;102564.09;5114729;28;20039;-53
2022/01/29 01:54:28;;;;;;;32.75;21.40;;;;;;;7.45;100.00;102552.72;5114603;28;20024;-47
2022/01/29 01:56:53;;;;;;;32.63;21.15;;;;;;;7.00;100.00;102461.59;5115880;28;20042;-52
2022/01/29 01:59:19;;;;;;;32.83;19.48;;;;;;;7.04;100.00;102463.34;5115524;28;20032;-48
2022/01/29 02:01:44;;;;;;;32.55;18.90;;;;;;;7.48;100.00;102534.41;5114445;28;20034;-50
2022/01/29 02:04:09;;;;;;;33.28;18.90;;;;;;;7.50;100.00;102537.06;5115550;28;20092;-50
2022/01/29 02:06:35;;;;;;;37.28;19.85;;;;;;;7.49;100.00;102538.78;5115240;28;20539;-49
2022/01/29 02:09:01;;;;;;;39.80;19.58;;;;;;;6.96;100.00;102441.47;5115870;28;20031;-48
2022/01/29 02:11:30;;;;;;;39.97;18.23;;;;;;;7.16;100.00;102462.56;5097592;28;20031;-48
2022/01/29 02:14:00;;;;;;;29.35;18.58;;;;;;;7.55;100.00;102532.72;5115796;28;20027;-52
2022/01/29 02:16:30;;;;;;;29.13;17.17;;;;;;;7.52;100.00;102517.84;5114400;28;20474;-49
2022/01/29 02:18:55;;;;;;;25.93;16.87;;;;;;;7.58;100.00;102528.38;5113965;28;20372;-50
2022/01/29 02:21:21;;;;;;;23.83;14.60;;;;;;;7.50;100.00;102523.97;5115167;28;20304;-49
2022/01/29 02:23:47;;;;;;;32.53;16.77;;;;;;;7.55;100.00;102519.63;5114039;28;20110;-45
2022/01/29 02:26:12;;;;;;;27.85;15.98;;;;;;;7.45;100.00;102491.59;5115189;28;20036;-48
2022/01/29 02:28:37;;;;;;;28.90;14.93;;;;;;;7.15;100.00;102435.50;5115312;28;20032;-50
2022/01/29 02:31:04;;;;;;;23.13;13.43;;;;;;;7.19;100.00;102432.06;5115274;28;20138;-50
2022/01/29 02:33:31;;;;;;;29.45;13.00;;;;;;;7.65;100.00;102492.59;5112498;28;20038;-49
2022/01/29 02:35:57;;;;;;;25.33;12.90;;;;;;;6.90;100.00;102365.53;5114125;28;20023;-52
2022/01/29 02:38:24;;;;;;;28.80;13.77;;;;;;;7.62;100.00;102477.72;5114785;28;20040;-48
2022/01/29 02:40:57;;;;;;;29.75;14.10;;;;;;;7.68;100.00;102488.25;5115344;28;20038;-49
2022/01/29 02:43:39;;;;;;;25.30;12.52;;;;;;;7.29;100.00;102419.91;5115034;28;20043;-47
2022/01/29 02:46:20;;;;;;;28.73;13.23;;;;;;;7.69;100.00;102479.53;5113492;28;20023;-49
2022/01/29 02:48:50;;;;;;;25.20;13.10;;;;;;;7.75;100.00;102465.56;5114031;28;20034;-50
2022/01/29 02:51:16;;;;;;;29.48;13.73;;;;;;;7.47;100.00;102417.41;5114763;28;20440;-50
2022/01/29 02:53:42;;;;;;;27.13;13.00;;;;;;;7.44;100.00;102403.41;5113752;28;20034;-50
2022/01/29 02:56:09;;;;;;;31.88;13.73;;;;;;;7.75;100.00;102453.34;5113391;28;20402;-48
2022/01/29 02:58:35;;;;;;;31.60;13.50;;;;;;;7.78;100.00;102461.22;5114749;27;20489;-53
2022/01/29 03:01:00;;;;;;;29.70;13.57;;;;;;;7.35;100.00;102381.50;5114585;28;20084;-49
2022/01/29 03:03:25;;;;;;;29.20;12.73;;;;;;;7.79;100.00;102456.88;5114750;28;20490;-50
2022/01/29 03:05:52;;;;;;;24.42;11.57;;;;;;;7.82;100.00;102454.25;5114482;28;20035;-50
2022/01/29 03:08:17;;;;;;;33.38;12.50;;;;;;;7.83;100.00;102445.50;5113125;28;20071;-50
2022/01/29 03:10:42;;;;;;;31.77;12.98;;;;;;;7.61;100.00;102407.84;5114587;28;20124;-47
2022/01/29 03:13:08;;;;;;;35.00;13.25;;;;;;;7.39;100.00;102371.91;5112864;28;20458;-49
2022/01/29 03:15:34;;;;;;;27.20;12.80;;;;;;;7.83;100.00;102442.88;5113337;28;20044;-48
2022/01/29 03:17:59;;;;;;;24.92;12.95;;;;;;;7.46;100.00;102364.97;5112692;28;20059;-46
2022/01/29 03:20:25;;;;;;;25.02;12.07;;;;;;;7.86;100.00;102438.53;5114612;28;20038;-50
2022/01/29 03:22:50;;;;;;;25.90;12.82;;;;;;;7.46;100.00;102372.84;5114175;28;20038;-49
2022/01/29 03:25:16;;;;;;;27.20;12.48;;;;;;;7.49;100.00;102359.75;5112853;28;20032;-48
2022/01/29 03:27:42;;;;;;;23.65;11.45;;;;;;;7.81;100.00;102405.31;5112588;28;20092;-50
2022/01/29 03:30:08;;;;;;;22.38;12.27;;;;;;;7.92;100.00;102433.31;5114405;28;20028;-46
2022/01/29 03:32:34;;;;;;;28.73;12.60;;;;;;;7.91;100.00;102420.19;5114196;28;20050;-50
2022/01/29 03:34:59;;;;;;;30.27;12.32;;;;;;;7.59;100.00;102358.94;5112694;28;20123;-46
2022/01/29 03:37:24;;;;;;;23.20;11.95;;;;;;;7.83;100.00;102401.81;5095775;28;20030;-48
2022/01/29 03:39:51;;;;;;;23.88;12.20;;;;;;;7.61;100.00;102350.19;5113822;28;20047;-48
2022/01/29 03:42:16;;;;;;;21.02;10.70;;;;;;;7.62;100.00;102343.19;5113573;28;20036;-47
2022/01/29 03:44:42;;;;;;;29.13;11.10;;;;;;;7.61;100.00;102341.47;5112439;28;20020;-48
2022/01/29 03:47:07;;;;;;;29.90;11.70;;;;;;;8.05;100.00;102413.28;5113859;28;20490;-48
2022/01/29 03:49:33;;;;;;;23.05;10.13;;;;;;;8.10;100.00;102424.63;5112508;28;20059;-50
2022/01/29 03:51:58;;;;;;;20.10;10.23;;;;;;;8.13;100.00;102395.78;5113793;28;20486;-51
2022/01/29 03:54:24;;;;;;;22.92;10.13;;;;;;;7.74;100.00;102331.00;5112032;28;20091;-50
2022/01/29 03:56:49;;;;;;;23.10;9.95;;;;;;;7.82;100.00;102328.44;5113223;28;20035;-48
2022/01/29 03:59:15;;;;;;;16.25;8.93;;;;;;;8.12;100.00;102378.31;5113547;27;20032;-50
2022/01/29 04:01:40;;;;;;;19.60;10.05;;;;;;;8.22;100.00;102395.81;5112185;28;20028;-50
2022/01/29 04:04:05;;;;;;;19.98;8.93;;;;;;;8.19;100.00;102360.84;5113386;27;20046;-48
2022/01/29 04:06:31;;;;;;;19.08;9.48;;;;;;;7.84;100.00;102305.69;5111903;28;20038;-48
2022/01/29 04:08:57;;;;;;;17.63;9.35;;;;;;;8.19;100.00;102361.72;5113393;28;20036;-47
2022/01/29 04:11:23;;;;;;;21.08;8.18;;;;;;;8.34;100.00;102381.88;5111658;28;20119;-46
2022/01/29 04:13:49;;;;;;;16.08;7.93;;;;;;;8.34;100.00;102382.75;5113408;28;20106;-49
2022/01/29 04:16:16;;;;;;;16.35;8.93;;;;;;;8.01;100.00;102322.34;5113060;27;20093;-48
2022/01/29 04:18:41;;;;;;;23.08;8.23;;;;;;;8.31;100.00;102395.88;5111520;28;20096;-48
2022/01/29 04:21:07;;;;;;;18.05;8.32;;;;;;;7.82;100.00;102304.84;5113201;28;20432;-46
2022/01/29 04:23:33;;;;;;;16.20;8.07;;;;;;;8.25;100.00;102374.84;5112863;28;20024;-48
2022/01/29 04:26:00;;;;;;;20.55;8.43;;;;;;;8.31;100.00;102385.38;5112706;28;20031;-49
2022/01/29 04:28:30;;;;;;;23.00;7.80;;;;;;;8.34;100.00;102382.75;5111840;28;20024;-50
2022/01/29 04:31:00;;;;;;;14.23;7.97;;;;;;;8.27;100.00;102365.25;5113325;28;20038;-50
2022/01/29 04:35:51;;;;;;;18.95;8.00;;;;;;;7.91;100.00;102297.84;5113114;28;20051;-47
2022/01/29 04:38:16;;;;;;;17.15;8.52;;;;;;;7.96;100.00;102297.88;5113043;28;20031;-49
2022/01/29 04:40:43;;;;;;;19.40;8.40;;;;;;;8.16;100.00;102330.22;5111989;28;20088;-48
2022/01/29 04:43:08;;;;;;;19.33;7.72;;;;;;;8.18;100.00;102340.72;5112712;27;20028;-50
2022/01/29 04:45:34;;;;;;;15.90;7.50;;;;;;;7.76;100.00;102266.34;5112719;28;20032;-51
2022/01/29 04:47:59;;;;;;;19.02;7.38;;;;;;;7.81;100.00;102282.09;5095069;28;20028;-48
2022/01/29 04:50:25;;;;;;;14.25;7.43;;;;;;;8.10;100.00;102335.47;5090869;28;20039;-47
2022/01/29 04:52:50;;;;;;;18.48;6.93;;;;;;;8.10;100.00;102345.97;5092231;28;20386;-48
2022/01/29 04:55:16;;;;;;;16.60;7.30;;;;;;;8.08;100.00;102347.72;5091978;28;20370;-49
2022/01/29 04:57:41;;;;;;;14.90;7.53;;;;;;;7.70;100.00;102270.72;5092645;28;20032;-48
2022/01/29 05:00:21;;;;;;;17.40;6.75;;;;;;;8.17;100.00;102349.47;5091027;28;20028;-48
2022/01/29 05:02:51;;;;;;;18.20;7.00;;;;;;;8.15;100.00;102341.59;5092159;28;20024;-53
2022/01/29 05:05:17;;;;;;;19.65;7.25;;;;;;;8.16;100.00;102339.84;5090913;28;20028;-49
2022/01/29 05:07:42;;;;;;;15.73;8.30;;;;;;;8.19;100.00;102343.34;5092066;28;20555;-49
2022/01/29 05:10:08;;;;;;;16.92;7.00;;;;;;;8.26;100.00;102346.88;5091143;28;20074;-49
2022/01/29 05:12:46;;;;;;;12.13;7.20;;;;;;;8.29;100.00;102349.53;5092087;28;20119;-49
2022/01/29 05:15:28;;;;;;;20.38;8.07;;;;;;;8.33;100.00;102346.91;5092406;28;20033;-51
2022/01/29 05:28:49;;;;;;;20.67;8.07;;;;;;;7.90;100.00;102269.00;5092308;28;20121;-50
2022/01/29 05:31:14;;;;;;;21.85;8.20;;;;;;;8.27;100.00;102323.28;5091789;28;20058;-50
2022/01/29 05:33:40;;;;;;;22.98;8.02;;;;;;;8.27;100.00;102324.97;5090761;28;20043;-50
2022/01/29 05:36:05;;;;;;;24.77;8.55;;;;;;;8.30;100.00;102330.28;5091755;28;20068;-52
2022/01/29 05:38:30;;;;;;;21.52;8.00;;;;;;;8.30;100.00;102332.88;5090634;28;20024;-50
2022/01/29 05:40:56;;;;;;;18.35;8.07;;;;;;;8.25;100.00;102322.38;5091837;28;20085;-50
2022/01/29 05:43:22;;;;;;;20.25;7.85;;;;;;;7.94;100.00;102279.50;5092159;28;20110;-50
2022/01/29 05:45:48;;;;;;;15.75;7.93;;;;;;;8.18;100.00;102319.72;5074107;28;20072;-50
2022/01/29 05:48:14;;;;;;;17.35;7.85;;;;;;;7.85;100.00;102268.16;5091972;28;20030;-49
2022/01/29 05:50:39;;;;;;;19.92;7.35;;;;;;;7.94;100.00;102276.00;5090791;28;20043;-50
2022/01/29 05:53:05;;;;;;;19.83;7.75;;;;;;;8.21;100.00;102344.22;5091758;28;20042;-50
2022/01/29 05:55:30;;;;;;;16.60;7.18;;;;;;;8.29;100.00;102334.63;5091540;28;20036;-49
2022/01/29 05:57:56;;;;;;;19.30;7.25;;;;;;;8.37;100.00;102340.78;5090410;28;20055;-51
2022/01/29 06:00:21;;;;;;;19.63;6.90;;;;;;;8.09;100.00;102290.88;5091683;28;20089;-50
2022/01/29 06:02:47;;;;;;;18.65;7.10;;;;;;;8.37;100.00;102325.03;5090619;28;20039;-48
2022/01/29 06:05:12;;;;;;;16.98;6.70;;;;;;;8.43;100.00;102325.00;5090377;28;20371;-48
2022/01/29 06:07:37;;;;;;;17.38;6.72;;;;;;;8.47;100.00;102325.91;5092219;28;20117;-49
2022/01/29 06:10:03;;;;;;;21.30;7.00;;;;;;;8.45;100.00;102344.28;5094042;28;20071;-53
2022/01/29 06:12:28;;;;;;;20.95;7.75;;;;;;;8.49;100.00;102318.91;5095727;28;20043;-49
2022/01/29 06:14:53;;;;;;;18.13;7.45;;;;;;;8.49;100.00;102317.13;5095734;28;20032;-47
2022/01/29 06:17:19;;;;;;;19.48;7.60;;;;;;;8.14;100.00;102248.06;5095536;28;20090;-48
2022/01/29 06:19:44;;;;;;;16.73;6.82;;;;;;;8.37;100.00;102282.19;5095372;28;20035;-51
2022/01/29 06:22:13;;;;;;;17.52;7.28;;;;;;;8.44;100.00;102291.78;5094073;28;20040;-50
2022/01/29 06:24:38;;;;;;;17.88;6.70;;;;;;;8.18;100.00;102230.56;5094817;28;20040;-52
2022/01/29 06:27:04;;;;;;;18.88;6.85;;;;;;;8.57;100.00;102304.03;5095709;28;20047;-50
2022/01/29 06:29:29;;;;;;;15.30;6.55;;;;;;;8.58;100.00;102291.78;5095208;28;20459;-47
2022/01/29 06:31:54;;;;;;;21.13;6.47;;;;;;;8.60;100.00;102301.41;5095171;28;20113;-50
2022/01/29 06:34:19;;;;;;;18.90;7.43;;;;;;;8.60;100.00;102300.53;5095373;28;20115;-48
2022/01/29 06:36:45;;;;;;;13.88;6.35;;;;;;;8.61;100.00;102291.78;5094962;28;20042;-51
2022/01/29 06:39:10;;;;;;;19.70;6.97;;;;;;;8.60;100.00;102300.53;5095065;28;20474;-50
2022/01/29 06:41:35;;;;;;;18.30;6.13;;;;;;;8.62;100.00;102294.41;5094786;28;20059;-47
2022/01/29 06:44:01;;;;;;;12.60;5.72;;;;;;;8.30;100.00;102234.09;5094607;28;20101;-51
2022/01/29 06:46:27;;;;;;;15.40;6.28;;;;;;;8.67;100.00;102304.91;5094680;28;20028;-52
2022/01/29 06:48:52;;;;;;;18.92;5.65;;;;;;;8.65;100.00;102290.88;5093788;28;20028;-49
2022/01/29 06:51:18;;;;;;;16.55;5.88;;;;;;;8.28;100.00;102209.59;5094545;28;20028;-48
2022/01/29 06:53:44;;;;;;;13.43;4.90;;;;;;;8.69;100.00;102290.91;5093200;28;20096;-48
2022/01/29 06:56:09;;;;;;;14.20;5.13;;;;;;;8.71;100.00;102277.75;5094966;28;20314;-51
2022/01/29 06:58:35;;;;;;;11.23;4.95;;;;;;;8.71;100.00;102281.25;5093218;28;20399;-47
2022/01/29 07:01:01;;;;;;;14.27;4.47;;;;;;;8.72;100.00;102285.66;5094618;28;20111;-49
2022/01/29 07:03:27;;;;;;;9.07;4.38;;;;;;;8.79;100.00;102275.97;5094280;28;20132;-47
2022/01/29 07:05:52;;;;;;;16.92;5.53;;;;;;;8.73;100.00;102266.38;5094503;28;20032;-48
2022/01/29 07:08:17;;;;;;;16.20;4.82;;;;;;;8.84;100.00;102269.84;5093767;28;20511;-49
2022/01/29 07:10:44;;;;;;;14.13;4.15;;;;;;;8.75;100.00;102259.38;5076305;28;20036;-50
2022/01/29 07:13:10;;;;;;;14.00;4.85;;;;;;;8.82;100.00;102268.09;5094042;28;20033;-46
2022/01/29 07:15:35;;;;;;;20.08;4.53;;;;;;;8.79;100.00;102271.59;5094393;28;20028;-47
2022/01/29 07:18:01;;;;;;;15.13;5.47;;;;;;;8.68;100.00;102243.63;5092874;28;20032;-47
2022/01/29 07:20:26;;;;;;;16.27;5.18;;;;;;;8.83;100.00;102280.34;5093692;28;20441;-51
2022/01/29 07:22:51;;;;;;;17.63;5.30;;;;;;;8.78;100.00;102279.50;5093921;28;20036;-49
2022/01/29 07:25:17;;;;;;;19.60;5.35;;;;;;;8.58;100.00;102234.91;5093874;28;20035;-48
2022/01/29 07:27:42;;;;;;;17.23;5.32;;;;;;;8.72;100.00;102267.28;5092474;28;20048;-47
2022/01/29 07:30:08;;;;;;;16.00;4.78;;;;;;;8.41;100.00;102199.94;5092705;28;20102;-49
2022/01/29 07:32:33;;;;;;;20.88;4.97;;;;;;;8.41;100.00;102189.44;5093891;28;20385;-49
2022/01/29 07:34:59;;;;;;;15.48;4.88;;;;;;;8.77;100.00;102247.13;5093854;28;20036;-50
2022/01/29 07:37:24;;;;;;;24.05;5.15;;;;;;;8.77;100.00;102257.63;5092516;28;20040;-51
2022/01/29 07:39:49;;;;;;;13.93;5.07;;;;;;;8.40;100.00;102183.34;5093529;28;20043;-48
2022/01/29 07:42:15;;;;;;;15.63;5.10;;;;;;;8.80;100.00;102240.97;5093723;28;20209;-50
2022/01/29 07:44:40;;;;;;;19.25;5.57;;;;;;;8.83;100.00;102241.84;5092400;28;20032;-49
2022/01/29 07:47:06;;;;;;;20.75;5.60;;;;;;;8.80;100.00;102243.59;5092360;28;20368;-52
2022/01/29 07:49:31;;;;;;;19.88;4.68;;;;;;;8.83;100.00;102247.09;5092218;28;20032;-49
2022/01/29 07:51:57;;;;;;;20.58;5.50;;;;;;;8.38;100.00;102148.34;5092024;28;20040;-49
2022/01/29 07:54:22;;;;;;;17.58;4.78;;;;;;;8.87;100.00;102240.09;5093344;28;20040;-53
2022/01/29 07:56:47;;;;;;;21.75;6.65;;;;;;;8.62;100.00;102170.16;5093211;28;20036;-49
2022/01/29 07:59:13;;;;;;;21.75;5.30;;;;;;;8.94;100.00;102212.91;5093332;28;20085;-51
2022/01/29 08:01:38;;;;;;;22.38;5.45;;;;;;;8.95;100.00;102222.56;5093415;28;20123;-46
2022/01/29 08:04:03;;;;;;;18.17;4.90;;;;;;;8.98;100.00;102217.28;5093043;28;20072;-51
2022/01/29 08:06:31;;;;;;;21.40;5.00;;;;;;;9.03;100.00;102218.13;5093068;28;20035;-48
2022/01/29 08:08:57;;;;;;;17.25;4.53;;;;;;;8.71;100.00;102162.25;5093523;28;20843;-46
2022/01/29 08:11:24;;;;;;;16.75;4.43;;;;;;;9.10;100.00;102209.38;5093253;28;20119;-51
2022/01/29 08:13:49;;;;;;;14.07;4.82;;;;;;;9.13;100.00;102218.97;5093108;28;20038;-48
2022/01/29 08:16:15;;;;;;;15.48;4.32;;;;;;;9.16;100.00;102205.84;5092973;28;20119;-47
2022/01/29 08:18:43;;;;;;;16.25;5.43;;;;;;;9.16;100.00;102209.34;5092913;28;20032;-49
2022/01/29 08:21:11;;;;;;;13.63;4.57;;;;;;;9.15;100.00;102201.44;5091614;28;20028;-48
2022/01/29 08:23:36;;;;;;;15.77;5.35;;;;;;;9.19;100.00;102209.31;5092639;28;20494;-48
2022/01/29 08:26:01;;;;;;;21.25;4.63;;;;;;;8.83;100.00;102143.81;5092875;28;20032;-47
2022/01/29 08:28:27;;;;;;;14.05;4.55;;;;;;;9.08;100.00;102187.47;5092752;28;20043;-48
2022/01/29 08:30:52;;;;;;;18.48;4.85;;;;;;;8.80;100.00;102163.09;5092295;28;20062;-48
2022/01/29 08:33:18;;;;;;;23.20;5.22;;;;;;;9.13;100.00;102211.09;5092693;28;20036;-48
2022/01/29 08:35:46;;;;;;;22.45;4.38;;;;;;;8.94;100.00;102198.03;5092517;28;20104;-48
2022/01/29 08:38:11;;;;;;;14.95;4.80;;;;;;;8.71;100.00;102147.38;5092648;28;20032;-49
2022/01/29 08:40:36;;;;;;;17.85;4.30;;;;;;;9.08;100.00;102221.63;5091485;28;20031;-50
2022/01/29 08:43:02;;;;;;;18.00;4.03;;;;;;;9.06;100.00;102183.97;5092733;28;20051;-50
2022/01/29 08:45:27;;;;;;;18.67;4.05;;;;;;;8.83;100.00;102125.44;5091477;28;20073;-48
2022/01/29 08:47:54;;;;;;;19.98;4.25;;;;;;;8.81;100.00;102133.34;5092591;28;20042;-48
2022/01/29 08:50:19;;;;;;;17.38;4.28;;;;;;;9.19;100.00;102200.56;5091109;28;20067;-48
2022/01/29 08:52:45;;;;;;;12.13;3.35;;;;;;;9.06;100.00;102170.84;5092488;28;20536;-49
2022/01/29 08:55:11;;;;;;;20.88;4.20;;;;;;;8.79;100.00;102111.47;5092273;28;20058;-49
2022/01/29 08:57:36;;;;;;;18.45;4.22;;;;;;;8.81;100.00;102121.97;5092349;28;20395;-49
2022/01/29 09:00:04;;;;;;;12.63;3.90;;;;;;;9.15;100.00;102181.31;5091269;28;20495;-47
2022/01/29 09:02:30;;;;;;;17.15;3.53;;;;;;;9.18;100.00;102188.31;5073876;28;20023;-49
2022/01/29 09:04:57;;;;;;;14.38;3.83;;;;;;;9.20;100.00;102174.28;5092324;28;20028;-49
2022/01/29 09:07:23;;;;;;;19.08;3.60;;;;;;;9.20;100.00;102173.38;5091825;28;20101;-49
2022/01/29 09:09:48;;;;;;;16.83;3.65;;;;;;;9.18;100.00;102173.41;5092254;28;20403;-47
2022/01/29 09:12:14;;;;;;;11.57;3.42;;;;;;;8.83;100.00;102093.94;5091974;28;20118;-46
2022/01/29 09:14:39;;;;;;;14.05;3.40;;;;;;;9.35;100.00;102171.56;5074101;28;20455;-47
2022/01/29 09:17:05;;;;;;;20.80;3.75;;;;;;;9.09;100.00;102123.56;5091916;28;20032;-46
2022/01/29 09:19:31;;;;;;;14.88;3.35;;;;;;;9.47;100.00;102171.47;5091977;28;20028;-50
2022/01/29 09:21:56;;;;;;;14.95;2.80;;;;;;;9.61;100.00;102174.00;5092057;28;20028;-50
2022/01/29 09:24:22;;;;;;;15.00;3.70;;;;;;;9.03;100.00;102056.19;5091785;28;20051;-51
2022/01/29 09:26:47;;;;;;;11.88;2.65;;;;;;;9.78;100.00;102177.38;5092089;28;20036;-50
2022/01/29 09:29:12;;;;;;;14.20;3.58;;;;;;;9.80;100.00;102175.63;5092050;28;20036;-48
2022/01/29 09:31:38;;;;;;;13.80;3.17;;;;;;;9.85;100.00;102175.56;5090884;28;20055;-49
2022/01/29 09:34:03;;;;;;;17.88;3.47;;;;;;;9.40;100.00;102097.94;5090928;28;20036;-48
2022/01/29 09:36:29;;;;;;;19.42;3.67;;;;;;;9.39;100.00;102089.22;5091498;28;20410;-47
2022/01/29 09:38:54;;;;;;;10.95;2.85;;;;;;;9.86;100.00;102157.16;5091945;28;20097;-48
2022/01/29 09:41:24;;;;;;;14.82;3.10;;;;;;;9.80;100.00;102132.69;5091965;28;20473;-48
2022/01/29 09:43:51;;;;;;;13.68;3.38;;;;;;;9.73;100.00;102115.19;5094872;28;20067;-52
2022/01/29 09:46:17;;;;;;;9.38;3.13;;;;;;;9.86;100.00;102144.03;5073901;28;20025;-49
2022/01/29 09:48:44;;;;;;;10.40;2.38;;;;;;;9.48;100.00;102078.63;5075613;28;20143;-47
2022/01/29 09:51:12;;;;;;;7.45;3.00;;;;;;;9.89;100.00;102138.75;5075651;28;20104;-51
2022/01/29 09:53:43;;;;;;;11.77;2.80;;;;;;;9.89;100.00;102127.34;5091150;28;20032;-47
2022/01/29 09:56:14;;;;;;;11.43;3.00;;;;;;;9.92;100.00;102132.56;5078464;28;20086;-49
2022/01/29 09:58:41;;;;;;;13.38;3.08;;;;;;;9.90;100.00;102142.22;5095349;28;20036;-51
2022/01/29 10:01:07;;;;;;;14.82;3.28;;;;;;;9.86;100.00;102154.53;5094973;28;20080;-48
2022/01/29 10:03:33;;;;;;;12.73;3.05;;;;;;;9.87;100.00;102147.50;5095139;28;20394;-48
2022/01/29 10:06:00;;;;;;;11.15;3.13;;;;;;;9.50;100.00;102070.72;5094715;28;20043;-47
2022/01/29 10:08:26;;;;;;;14.95;3.00;;;;;;;9.89;100.00;102151.88;5094022;28;20040;-50
2022/01/29 10:10:54;;;;;;;12.23;2.83;;;;;;;9.95;100.00;102161.47;5093966;28;20043;-49
2022/01/29 10:13:35;;;;;;;11.57;2.38;;;;;;;9.96;100.00;102164.06;5110454;28;20036;-47
2022/01/29 10:16:04;;;;;;;9.73;2.22;;;;;;;10.07;100.00;102166.59;5095122;28;20543;-48
2022/01/29 10:18:30;;;;;;;8.82;2.78;;;;;;;9.94;100.00;102097.47;5094715;28;20039;-50
2022/01/29 10:21:10;;;;;;;11.07;2.58;;;;;;;10.45;100.00;102111.00;5093675;28;20123;-47
2022/01/29 10:23:36;;;;;;;10.48;2.30;;;;;;;10.57;100.00;102103.81;5095221;28;20028;-51
2022/01/29 10:26:02;;;;;;;10.43;2.10;;;;;;;11.12;100.00;102164.53;5094088;28;20173;-51
2022/01/29 10:28:27;;;;;;;7.18;1.83;;;;;;;10.89;100.00;102108.66;5092250;28;20024;-50
2022/01/29 10:31:01;;;;;;;12.57;2.13;;;;;;;10.94;100.00;102104.22;5094475;28;20110;-52
2022/01/29 10:33:29;;;;;;;7.85;1.90;;;;;;;11.27;100.00;102153.78;5092955;28;20113;-48
2022/01/29 10:36:04;;;;;;;8.52;2.42;;;;;;;11.23;100.00;102146.84;5094527;28;20040;-51
2022/01/29 10:38:53;;;;;;;8.85;2.50;;;;;;;11.25;100.00;102137.13;5089573;28;20364;-51
2022/01/29 10:41:24;;;;;;;7.38;2.50;;;;;;;10.80;100.00;102064.00;5093664;28;20111;-52
2022/01/29 10:44:19;;;;;;;11.23;2.95;;;;;;;11.07;100.00;102147.94;5094696;28;20085;-50
2022/01/29 10:46:53;;;;;;;13.15;2.80;;;;;;;11.07;100.00;102111.03;5073371;28;20041;-51
2022/01/29 10:49:21;;;;;;;12.32;3.00;;;;;;;11.32;100.00;102156.38;5090025;28;20043;-53
2022/01/29 10:52:07;;;;;;;12.23;2.88;;;;;;;11.37;100.00;102154.53;5094384;28;20031;-49
2022/01/29 10:54:35;;;;;;;18.75;3.10;;;;;;;11.34;100.00;102128.22;5091372;28;20036;-50
2022/01/29 10:57:22;;;;;;;14.93;3.92;;;;;;;11.36;100.00;102138.72;5093095;28;20032;-50
2022/01/29 10:59:50;;;;;;;14.23;3.05;;;;;;;10.85;100.00;102059.56;5092978;28;20487;-52
2022/01/29 11:02:17;;;;;;;10.23;2.80;;;;;;;10.78;100.00;102065.78;5092582;28;20477;-48
2022/01/29 11:04:44;;;;;;;11.65;3.28;;;;;;;11.01;100.00;102102.34;5093962;28;20082;-47
2022/01/29 11:07:19;;;;;;;15.05;3.35;;;;;;;10.96;100.00;102091.88;5093046;28;20145;-49
2022/01/29 11:09:52;;;;;;;12.02;3.38;;;;;;;10.83;100.00;102102.63;5093360;28;20479;-51
2022/01/29 11:12:21;;;;;;;11.45;2.78;;;;;;;10.68;100.00;102101.91;5093445;28;20036;-48
2022/01/29 11:14:48;;;;;;;9.98;2.83;;;;;;;10.68;100.00;102087.91;5093391;28;20024;-50
2022/01/29 11:17:15;;;;;;;12.52;2.55;;;;;;;10.41;100.00;102022.44;5092656;28;20188;-47
2022/01/29 11:19:40;;;;;;;9.52;2.88;;;;;;;10.38;100.00;102020.72;5092939;28;20028;-51
2022/01/29 11:22:07;;;;;;;10.68;3.22;;;;;;;10.83;100.00;102089.47;5092864;28;20032;-47
2022/01/29 11:24:36;;;;;;;9.00;2.38;;;;;;;10.46;100.00;102010.06;5092398;28;20046;-50
2022/01/29 11:27:22;;;;;;;14.05;3.00;;;;;;;10.84;100.00;102047.28;5093127;28;20048;-47